Time;durP1;ratioP1;P1;durP2;ratioP2;P2;SDS_P1;SDS_P2;PMS_P1;PMS_P2;Temp;Humidity;BMP_temperature;BMP_pressure;BME280_temperature;BME280_humidity;BME280_pressure;Samples;Min_cycle;Max_cycle;Signal;HPM_P1;HPM_P2
2023/10/09 00:01:17;;;;;;;19.15;10.05;;;;;;;12.26;100.00;101783.50;5042742;28;20032;-80
2023/10/09 00:03:51;;;;;;;17.25;10.30;;;;;;;12.35;100.00;101772.63;5034240;28;20087;-80
2023/10/09 00:06:17;;;;;;;16.77;9.75;;;;;;;12.36;100.00;101777.84;5045734;28;21927;-80
2023/10/09 00:08:50;;;;;;;16.55;10.23;;;;;;;12.42;100.00;101762.75;5042759;28;20053;-80
2023/10/09 00:11:16;;;;;;;19.70;11.57;;;;;;;12.53;100.00;101747.94;5043874;28;20064;-80
2023/10/09 00:13:49;;;;;;;20.70;11.30;;;;;;;12.58;100.00;101735.53;5039349;28;20044;-80
2023/10/09 00:16:35;;;;;;;17.45;10.70;;;;;;;12.59;100.00;101741.78;5026707;28;20034;-79
2023/10/09 00:21:48;;;;;;;19.00;11.23;;;;;;;12.70;100.00;101741.31;5043987;28;20027;-79
2023/10/09 00:24:17;;;;;;;17.80;11.80;;;;;;;12.67;100.00;101751.66;5036661;28;20497;-80
2023/10/09 00:26:45;;;;;;;22.55;12.05;;;;;;;12.69;100.00;101757.72;5044952;28;20133;-80
2023/10/09 00:29:21;;;;;;;22.27;12.07;;;;;;;12.79;100.00;101755.53;5033196;28;20033;-80
2023/10/09 00:31:54;;;;;;;19.73;11.68;;;;;;;12.77;100.00;101764.88;5042691;28;20541;-80
2023/10/09 00:34:21;;;;;;;17.92;11.57;;;;;;;12.78;100.00;101758.44;5036948;28;20582;-80
2023/10/09 00:36:50;;;;;;;19.58;11.68;;;;;;;12.78;100.00;101756.56;5032442;28;20068;-79
2023/10/09 00:39:23;;;;;;;19.25;11.75;;;;;;;12.85;100.00;101762.91;5029996;28;20143;-80
2023/10/09 00:41:48;;;;;;;20.42;11.32;;;;;;;12.87;100.00;101757.28;5052017;28;20056;-79
2023/10/09 00:44:14;;;;;;;20.60;11.65;;;;;;;12.81;100.00;101758.03;5039509;28;20637;-79
2023/10/09 00:46:42;;;;;;;20.13;12.38;;;;;;;12.76;100.00;101763.19;5047733;28;20029;-79
2023/10/09 00:49:10;;;;;;;20.25;12.18;;;;;;;12.78;100.00;101756.56;5034378;28;20090;-79
2023/10/09 00:51:36;;;;;;;19.50;11.38;;;;;;;12.82;100.00;101757.00;5017291;28;20048;-80
2023/10/09 00:54:28;;;;;;;18.10;11.68;;;;;;;12.70;100.00;101757.50;5034257;28;20032;-79
2023/10/09 00:56:57;;;;;;;20.23;12.70;;;;;;;12.64;100.00;101754.72;5038014;28;20033;-80
2023/10/09 00:59:24;;;;;;;19.15;11.88;;;;;;;12.56;100.00;101753.78;5034703;28;20477;-79
2023/10/09 01:01:56;;;;;;;20.67;12.30;;;;;;;12.50;100.00;101754.56;5017804;28;20033;-81
2023/10/09 01:04:25;;;;;;;20.25;12.43;;;;;;;12.55;100.00;101749.41;5042735;28;20028;-79
2023/10/09 01:07:06;;;;;;;22.45;12.38;;;;;;;12.63;100.00;101744.94;5020494;28;20144;-81
2023/10/09 01:09:37;;;;;;;20.73;12.48;;;;;;;12.62;100.00;101737.88;5034538;28;20385;-80
2023/10/09 01:12:03;;;;;;;19.52;12.98;;;;;;;12.67;100.00;101730.03;5034339;28;20029;-80
2023/10/09 01:14:37;;;;;;;19.52;12.18;;;;;;;12.66;100.00;101739.16;5041695;28;20481;-80
2023/10/09 01:17:07;;;;;;;25.80;13.35;;;;;;;12.51;100.00;101740.03;5020663;28;20029;-80
2023/10/09 01:19:33;;;;;;;25.02;13.63;;;;;;;12.49;100.00;101738.53;5033898;28;20179;-80
2023/10/09 01:22:04;;;;;;;25.10;14.43;;;;;;;12.56;100.00;101739.47;5034246;28;20032;-80
2023/10/09 01:24:31;;;;;;;22.13;13.68;;;;;;;12.57;100.00;101739.25;5034962;28;20547;-79
2023/10/09 01:26:59;;;;;;;23.40;13.13;;;;;;;12.66;100.00;101734.59;5035796;28;20032;-80
2023/10/09 01:29:27;;;;;;;22.75;13.85;;;;;;;12.73;100.00;101740.06;5053416;28;20024;-80
2023/10/09 01:32:04;;;;;;;21.70;13.25;;;;;;;12.85;100.00;101729.63;5053513;28;20481;-80
2023/10/09 01:34:42;;;;;;;23.45;14.02;;;;;;;12.95;100.00;101723.91;5035472;28;20033;-80
2023/10/09 01:37:18;;;;;;;22.50;14.30;;;;;;;12.85;100.00;101735.88;5053549;28;20040;-80
2023/10/09 01:39:45;;;;;;;23.70;14.07;;;;;;;12.95;100.00;101726.59;5053257;28;20507;-80
2023/10/09 01:42:10;;;;;;;25.30;14.85;;;;;;;13.02;100.00;101722.13;5042105;28;20033;-80
2023/10/09 01:44:43;;;;;;;22.63;13.93;;;;;;;13.13;100.00;101728.88;5011848;28;20043;-80
2023/10/09 01:47:08;;;;;;;22.60;13.80;;;;;;;13.17;100.00;101722.03;5034979;28;20532;-80
2023/10/09 01:49:37;;;;;;;24.00;14.02;;;;;;;13.22;100.00;101719.59;5040956;28;20047;-79
2023/10/09 01:52:07;;;;;;;23.65;14.20;;;;;;;13.32;100.00;101716.59;5033453;28;20033;-79
2023/10/09 01:54:36;;;;;;;22.88;14.30;;;;;;;13.38;100.00;101726.63;5040666;28;20037;-80
2023/10/09 01:57:12;;;;;;;22.77;14.23;;;;;;;13.34;100.00;101734.28;5032289;28;20080;-80
2023/10/09 01:59:49;;;;;;;25.67;14.40;;;;;;;13.44;100.00;101723.16;5030505;28;20037;-80
2023/10/09 02:02:35;;;;;;;23.35;14.25;;;;;;;13.46;100.00;101723.00;5031977;28;20060;-80
2023/10/09 02:05:10;;;;;;;24.80;15.07;;;;;;;13.51;100.00;101706.16;5033698;28;20089;-80
2023/10/09 02:07:52;;;;;;;24.50;15.30;;;;;;;13.53;100.00;101707.63;5045464;28;20037;-80
2023/10/09 02:12:58;;;;;;;24.58;14.75;;;;;;;13.59;100.00;101714.16;5030335;28;20045;-80
2023/10/09 02:19:29;;;;;;;26.17;14.60;;;;;;;13.69;100.00;101690.28;5046211;28;20052;-80
2023/10/09 02:23:49;;;;;;;25.23;15.45;;;;;;;13.69;100.00;101692.13;5059170;28;20037;-80
2023/10/09 02:29:15;;;;;;;24.13;15.80;;;;;;;13.70;100.00;101678.44;5054964;28;20048;-80
2023/10/09 02:31:52;;;;;;;26.80;15.88;;;;;;;13.70;100.00;101678.44;5044474;28;20021;-80
2023/10/09 02:34:27;;;;;;;25.35;15.48;;;;;;;13.68;100.00;101674.25;5048579;28;20044;-80
2023/10/09 02:37:05;;;;;;;27.73;15.70;;;;;;;13.69;100.00;101686.72;5031241;28;20028;-80
2023/10/09 02:39:36;;;;;;;27.10;16.23;;;;;;;13.66;100.00;101693.38;5033170;28;20100;-80
2023/10/09 02:42:06;;;;;;;30.08;16.77;;;;;;;13.68;100.00;101674.25;5015746;28;20113;-80
2023/10/09 02:44:39;;;;;;;26.45;16.05;;;;;;;13.73;100.00;101679.88;5030933;28;20045;-79
2023/10/09 02:47:06;;;;;;;25.70;16.02;;;;;;;13.75;100.00;101673.28;5048211;28;20043;-80
2023/10/09 02:49:34;;;;;;;26.05;16.38;;;;;;;13.74;100.00;101663.47;5050801;28;20067;-80
2023/10/09 02:51:59;;;;;;;26.90;16.45;;;;;;;13.78;100.00;101663.91;5048692;28;20031;-80
2023/10/09 02:54:41;;;;;;;24.13;15.93;;;;;;;13.78;100.00;101653.09;5046557;28;20068;-80
2023/10/09 02:57:07;;;;;;;28.48;16.70;;;;;;;13.80;100.00;101646.44;5058876;28;20025;-80
2023/10/09 02:59:38;;;;;;;27.08;15.80;;;;;;;13.81;100.00;101647.28;5034015;28;20036;-79
2023/10/09 03:02:24;;;;;;;27.02;16.80;;;;;;;13.77;100.00;101651.41;5042409;28;20043;-79
2023/10/09 03:04:55;;;;;;;28.98;17.40;;;;;;;13.68;100.00;101652.63;5028920;28;20100;-79
2023/10/09 03:07:23;;;;;;;27.75;17.40;;;;;;;13.73;100.00;101653.69;5036304;28;20115;-80
2023/10/09 03:09:50;;;;;;;26.73;16.25;;;;;;;13.78;100.00;101647.66;5033287;28;20048;-80
2023/10/09 03:12:18;;;;;;;24.40;16.38;;;;;;;13.70;100.00;101645.09;5031066;28;20029;-79
2023/10/09 03:14:44;;;;;;;25.70;17.42;;;;;;;13.79;100.00;101639.34;5035130;28;20108;-79
2023/10/09 03:17:51;;;;;;;24.85;16.33;;;;;;;13.85;100.00;101623.34;5034019;23;20060;-80
2023/10/09 03:20:17;;;;;;;26.75;16.58;;;;;;;13.85;100.00;101626.06;5005932;28;20041;-79
2023/10/09 03:22:44;;;;;;;27.08;16.85;;;;;;;13.85;100.00;101623.34;5022160;28;20013;-79
2023/10/09 03:25:13;;;;;;;27.00;17.15;;;;;;;13.82;100.00;101618.34;5032639;28;20049;-79
2023/10/09 03:27:47;;;;;;;30.58;17.08;;;;;;;13.74;100.00;101620.19;5017528;28;20040;-80
2023/10/09 03:30:22;;;;;;;26.90;17.13;;;;;;;13.78;100.00;101616.00;5028986;28;20077;-80
2023/10/09 03:32:51;;;;;;;21.75;16.02;;;;;;;13.82;100.00;101608.34;5030738;28;20025;-79
2023/10/09 03:35:25;;;;;;;27.27;16.90;;;;;;;13.78;100.00;101621.44;5027099;28;20466;-79
2023/10/09 03:38:00;;;;;;;26.33;17.00;;;;;;;13.70;100.00;101624.31;5012696;28;20060;-79
2023/10/09 03:40:25;;;;;;;25.73;17.50;;;;;;;13.68;100.00;101631.78;5026043;28;20104;-80
2023/10/09 03:42:53;;;;;;;30.15;17.88;;;;;;;13.66;100.00;101623.03;5023240;28;20427;-80
2023/10/09 03:45:25;;;;;;;25.77;17.42;;;;;;;13.66;100.00;101623.03;5026030;28;20049;-80
2023/10/09 03:48:08;;;;;;;25.27;17.10;;;;;;;13.68;100.00;101623.66;5023413;28;20244;-79
2023/10/09 03:50:37;;;;;;;26.45;17.17;;;;;;;13.69;100.00;101622.63;5026581;28;20037;-80
2023/10/09 03:53:44;;;;;;;26.70;17.98;;;;;;;13.59;100.00;101628.41;5223160;23;20486;-81
2023/10/09 04:03:05;;;;;;;24.50;16.42;;;;;;;13.76;100.00;101618.13;4965630;28;20026;-81
2023/10/09 04:06:04;;;;;;;24.83;16.52;;;;;;;13.80;100.00;101629.38;5027817;28;20087;-81
2023/10/09 04:08:47;;;;;;;24.42;16.65;;;;;;;13.76;100.00;101607.28;5008674;28;20048;-81
2023/10/09 04:18:15;;;;;;;25.20;17.05;;;;;;;13.80;100.00;101605.00;5043308;28;20389;-81
2023/10/09 04:21:18;;;;;;;22.65;15.90;;;;;;;13.84;100.00;101606.28;5039998;28;20044;-81
2023/10/09 04:24:09;;;;;;;23.65;16.30;;;;;;;13.79;100.00;101611.47;5040803;28;20029;-77
2023/10/09 04:27:16;;;;;;;26.23;17.63;;;;;;;13.75;100.00;101623.72;5267951;23;20520;-82
2023/10/09 04:29:49;;;;;;;23.17;16.90;;;;;;;13.67;100.00;101630.13;5027531;28;20026;-82
2023/10/09 04:44:29;;;;;;;24.65;17.67;;;;;;;13.66;100.00;101633.84;5032365;28;20056;-78
2023/10/09 04:52:51;;;;;;;25.50;17.33;;;;;;;13.51;100.00;101652.06;5043864;28;20123;-76
2023/10/09 04:58:25;;;;;;;26.83;18.00;;;;;;;13.57;100.00;101654.81;5026807;28;20436;-77
2023/10/09 05:02:57;;;;;;;24.85;16.88;;;;;;;13.61;100.00;101660.66;5035560;28;20029;-78
2023/10/09 05:05:58;;;;;;;23.50;16.85;;;;;;;13.70;100.00;101651.38;5048672;28;20032;-76
2023/10/09 05:08:20;;;;;;;22.88;16.63;;;;;;;13.75;100.00;101646.22;5042020;28;20051;-76
2023/10/09 05:16:25;;;;;;;24.77;17.08;;;;;;;13.58;100.00;101655.66;5054917;28;20116;-76
2023/10/09 05:18:57;;;;;;;24.38;17.65;;;;;;;13.62;100.00;101654.22;5028855;28;20020;-75
2023/10/09 05:24:19;;;;;;;25.98;17.65;;;;;;;13.81;100.00;101658.09;5037695;28;20124;-76
2023/10/09 05:29:19;;;;;;;23.85;17.63;;;;;;;13.86;100.00;101652.09;5055779;28;20033;-76
2023/10/09 05:32:03;;;;;;;24.08;17.58;;;;;;;13.83;100.00;101652.47;5053394;28;20167;-76
2023/10/09 05:34:34;;;;;;;25.45;17.70;;;;;;;13.82;100.00;101658.94;5046846;28;20100;-76
2023/10/09 05:51:10;;;;;;;23.95;16.25;;;;;;;14.11;100.00;101657.84;5024707;28;20488;-77
2023/10/09 06:04:17;;;;;;;26.83;17.42;;;;;;;13.87;100.00;101707.88;5051806;28;20044;-82
2023/10/09 06:06:44;;;;;;;24.55;18.50;;;;;;;13.83;100.00;101706.59;5050552;28;20481;-81
2023/10/09 06:11:55;;;;;;;23.15;17.33;;;;;;;13.96;100.00;101703.97;5040462;28;20029;-81
2023/10/09 06:19:40;;;;;;;22.40;17.40;;;;;;;14.07;100.00;101700.75;5038481;28;20047;-80
2023/10/09 06:32:53;;;;;;;21.05;15.85;;;;;;;14.01;100.00;101706.13;5043054;28;20501;-80
2023/10/09 06:35:23;;;;;;;24.73;17.75;;;;;;;14.00;100.00;101712.56;5034940;28;20129;-79
2023/10/09 06:46:22;;;;;;;26.77;17.55;;;;;;;14.02;100.00;101735.69;5016398;28;20030;-78
2023/10/09 06:48:55;;;;;;;25.38;17.13;;;;;;;14.04;100.00;101732.75;5028209;28;20069;-78
2023/10/09 06:54:03;;;;;;;22.90;16.20;;;;;;;14.36;100.00;101671.69;5039146;28;20093;-79
2023/10/09 06:59:21;;;;;;;23.10;16.90;;;;;;;14.30;100.00;101696.88;5029952;28;20069;-80
2023/10/09 07:02:11;;;;;;;23.35;15.48;;;;;;;14.36;100.00;101698.78;5032266;28;20029;-80
2023/10/09 07:06:59;;;;;;;20.92;15.05;;;;;;;14.51;100.00;101712.19;5047436;28;20037;-79
2023/10/09 07:09:27;;;;;;;21.38;15.27;;;;;;;14.55;100.00;101699.94;5051362;28;20035;-80
2023/10/09 07:12:03;;;;;;;20.40;15.45;;;;;;;14.67;100.00;101699.34;5037059;28;20076;-80
2023/10/09 07:17:00;;;;;;;20.17;15.45;;;;;;;14.66;100.00;101686.81;5033187;28;20044;-80
2023/10/09 07:22:02;;;;;;;19.95;15.23;;;;;;;14.70;100.00;101678.09;5033157;28;20112;-80
2023/10/09 07:27:15;;;;;;;23.92;15.77;;;;;;;14.81;100.00;101683.97;5028737;28;20133;-81
2023/10/09 07:38:08;;;;;;;19.30;15.65;;;;;;;14.85;100.00;101712.31;4993538;28;20037;-81
2023/10/09 07:40:55;;;;;;;21.33;15.40;;;;;;;14.78;100.00;101711.50;4993730;28;20109;-81
2023/10/09 07:43:39;;;;;;;20.17;14.73;;;;;;;14.78;100.00;101706.06;4993300;28;20387;-80
2023/10/09 07:48:53;;;;;;;19.98;14.00;;;;;;;14.83;100.00;101706.28;4992729;28;20033;-81
2023/10/09 07:51:52;;;;;;;20.92;15.32;;;;;;;14.95;100.00;101707.38;4997619;28;20022;-80
2023/10/09 07:54:35;;;;;;;19.05;14.35;;;;;;;14.95;100.00;101731.78;4996023;28;20042;-80
2023/10/09 08:01:07;;;;;;;17.20;14.43;;;;;;;15.01;100.00;101721.97;4998933;28;20073;-81
2023/10/09 08:12:13;;;;;;;19.88;14.43;;;;;;;15.19;100.00;101731.41;4996154;28;20124;-81
2023/10/09 08:18:27;;;;;;;20.23;14.65;;;;;;;15.28;100.00;101720.16;4992692;28;20122;-81
2023/10/09 08:24:04;;;;;;;21.15;14.82;;;;;;;15.49;100.00;101674.00;4997718;28;20104;-80
2023/10/09 08:26:47;;;;;;;19.25;14.45;;;;;;;15.47;100.00;101693.22;4995277;28;20073;-81
2023/10/09 08:29:34;;;;;;;18.50;14.18;;;;;;;15.54;100.00;101675.03;4993598;28;20044;-80
2023/10/09 08:32:18;;;;;;;22.45;14.60;;;;;;;15.70;100.00;101679.22;4991041;28;20081;-81
2023/10/09 08:34:53;;;;;;;20.10;14.30;;;;;;;15.85;100.00;101673.59;4964970;28;20053;-81
2023/10/09 08:38:08;;;;;;;;;;;;;;;;;;;;;
2023/10/09 08:40:43;;;;;;;16.85;13.65;;;;;;;15.93;100.00;101653.53;4997207;28;20061;-82
2023/10/09 08:43:18;;;;;;;18.98;14.60;;;;;;;15.96;100.00;101655.81;4995386;28;20462;-81
2023/10/09 08:46:13;;;;;;;19.75;14.38;;;;;;;16.06;100.00;101655.38;4995962;28;20046;-82
2023/10/09 08:48:43;;;;;;;17.85;13.77;;;;;;;16.10;100.00;101656.59;4977017;28;20036;-81
2023/10/09 08:52:03;;;;;;;17.85;14.35;;;;;;;16.15;100.00;101664.13;4977568;28;20042;-82
2023/10/09 08:54:37;;;;;;;18.67;13.40;;;;;;;16.25;100.00;101647.34;4995009;28;20041;-81
2023/10/09 09:01:21;;;;;;;16.65;13.50;;;;;;;16.43;100.00;101688.22;4915494;29;20038;-82
2023/10/09 09:17:41;;;;;;;17.58;13.93;;;;;;;16.29;100.00;101724.66;5015766;28;20088;-81
2023/10/09 09:20:41;;;;;;;19.95;14.00;;;;;;;16.45;100.00;101740.47;5015269;28;20034;-81
2023/10/09 09:23:12;;;;;;;17.92;14.32;;;;;;;16.60;100.00;101747.53;4995630;28;20042;-81
2023/10/09 09:25:44;;;;;;;21.48;14.45;;;;;;;16.67;99.19;101734.75;4994569;28;20030;-81
2023/10/09 09:28:21;;;;;;;19.30;13.43;;;;;;;16.90;97.93;101738.84;4995764;28;20471;-82
2023/10/09 09:30:51;;;;;;;17.90;13.95;;;;;;;16.82;97.93;101758.97;4995657;28;20038;-81
2023/10/09 09:33:39;;;;;;;20.45;14.93;;;;;;;16.77;99.34;101746.00;4993530;28;20026;-81
2023/10/09 09:39:19;;;;;;;19.77;13.93;;;;;;;17.11;97.06;101754.88;4978693;28;20469;-81
2023/10/09 09:41:45;;;;;;;22.20;14.73;;;;;;;16.99;97.57;101745.72;4995695;28;20028;-81
2023/10/09 09:44:21;;;;;;;21.23;14.60;;;;;;;17.11;97.45;101763.03;5008351;28;20060;-81
2023/10/09 09:46:59;;;;;;;19.95;14.52;;;;;;;17.31;96.02;101767.47;5001709;28;20029;-78
2023/10/09 09:49:31;;;;;;;20.42;14.18;;;;;;;17.32;95.50;101762.88;5032380;28;20080;-78
2023/10/09 09:52:03;;;;;;;20.35;14.55;;;;;;;17.42;95.71;101755.91;5001501;28;20605;-79
2023/10/09 09:54:44;;;;;;;19.33;14.25;;;;;;;17.32;95.92;101758.25;5001197;28;20086;-78
2023/10/09 09:57:10;;;;;;;18.63;13.15;;;;;;;17.42;96.06;101753.19;5003126;28;20034;-78
2023/10/09 10:05:32;;;;;;;19.40;13.45;;;;;;;17.52;96.01;101755.41;5040561;23;20119;-78
2023/10/09 10:08:00;;;;;;;21.48;13.90;;;;;;;17.61;95.20;101760.56;5034556;28;20436;-78
2023/10/09 10:10:47;;;;;;;20.33;13.48;;;;;;;17.62;95.66;101767.69;5048581;28;20061;-78
2023/10/09 10:13:21;;;;;;;20.65;13.18;;;;;;;17.82;94.35;101762.91;5013779;28;20041;-78
2023/10/09 10:15:56;;;;;;;20.00;13.02;;;;;;;17.87;94.23;101767.69;5039319;28;20061;-78
2023/10/09 10:18:23;;;;;;;15.90;12.25;;;;;;;18.06;93.57;101765.88;5028293;28;20092;-78
2023/10/09 10:21:17;;;;;;;19.40;13.30;;;;;;;18.01;92.86;101766.53;5032803;28;20044;-79
2023/10/09 10:23:47;;;;;;;18.13;12.57;;;;;;;17.88;93.12;101762.03;5026547;28;20038;-77
2023/10/09 10:26:29;;;;;;;18.20;12.90;;;;;;;17.85;93.60;101762.47;5033071;28;20069;-77
2023/10/09 10:29:23;;;;;;;18.45;12.60;;;;;;;18.02;93.10;101770.91;5033380;28;20025;-77
2023/10/09 10:32:00;;;;;;;17.98;12.45;;;;;;;17.95;92.64;101772.84;5033342;28;20370;-80
2023/10/09 10:34:26;;;;;;;17.48;11.60;;;;;;;18.09;93.17;101768.13;5031840;28;20426;-78
2023/10/09 10:36:58;;;;;;;19.75;12.57;;;;;;;18.30;91.56;101772.31;5033644;28;20036;-77
2023/10/09 10:39:42;;;;;;;20.08;13.15;;;;;;;18.11;92.22;101771.47;5034005;28;20022;-78
2023/10/09 10:42:09;;;;;;;20.52;13.18;;;;;;;18.07;92.72;101770.25;5033228;28;20040;-78
2023/10/09 10:44:38;;;;;;;19.17;12.70;;;;;;;18.11;92.73;101762.47;5032689;28;20619;-78
2023/10/09 10:47:56;;;;;;;18.48;12.43;;;;;;;17.99;93.52;101763.22;5033097;28;20035;-78
2023/10/09 10:50:07;;;;;;;21.45;13.15;;;;;;;18.02;93.59;101767.38;4989308;28;20048;-78
2023/10/09 10:52:35;;;;;;;17.60;12.20;;;;;;;18.22;92.69;101764.44;5033690;28;20025;-77
2023/10/09 10:55:18;;;;;;;20.98;12.07;;;;;;;18.47;91.39;101774.44;5030780;28;20040;-78
2023/10/09 10:58:00;;;;;;;22.00;11.90;;;;;;;18.54;91.41;101775.19;5030967;28;20042;-78
2023/10/09 11:03:13;;;;;;;18.95;12.38;;;;;;;19.03;88.97;101774.41;5026564;28;20125;-78
2023/10/09 11:05:41;;;;;;;16.80;11.73;;;;;;;19.20;87.85;101774.56;5033339;28;20069;-78
2023/10/09 11:08:09;;;;;;;18.38;12.20;;;;;;;18.86;87.97;101780.47;5015702;28;20029;-78
2023/10/09 11:10:34;;;;;;;21.27;13.40;;;;;;;18.88;88.94;101780.22;5031021;28;20572;-78
2023/10/09 11:15:46;;;;;;;19.15;12.40;;;;;;;19.03;88.30;101758.84;5033973;28;20124;-78
2023/10/09 11:18:24;;;;;;;18.38;11.77;;;;;;;19.00;87.75;101753.03;5033061;28;20558;-78
2023/10/09 11:20:57;;;;;;;16.98;11.98;;;;;;;19.09;87.92;101755.22;5035191;28;20052;-78
2023/10/09 11:32:06;;;;;;;18.38;10.95;;;;;;;19.82;84.81;101746.06;4932321;29;20396;-77
2023/10/09 11:34:37;;;;;;;17.35;10.68;;;;;;;20.34;82.15;101742.59;4973560;28;20122;-77
2023/10/09 11:37:12;;;;;;;13.77;10.25;;;;;;;20.70;80.23;101742.50;5026159;28;20034;-78
2023/10/09 11:39:50;;;;;;;19.37;11.07;;;;;;;20.12;81.44;101747.88;5012426;28;20514;-78
2023/10/09 11:42:35;;;;;;;20.60;11.48;;;;;;;;;;5013770;28;20040;-78
2023/10/09 11:45:04;;;;;;;17.38;10.82;;;;;;;20.25;81.15;101746.78;5012525;28;20026;-78
2023/10/09 11:47:34;;;;;;;16.55;11.82;;;;;;;20.14;81.99;101752.00;5011827;28;20080;-78
2023/10/09 11:52:35;;;;;;;16.85;10.68;;;;;;;20.34;80.76;101745.34;5015889;28;20157;-78
2023/10/09 11:55:02;;;;;;;16.05;10.57;;;;;;;20.24;81.09;101758.78;5032495;28;20031;-78
2023/10/09 11:57:31;;;;;;;16.17;10.95;;;;;;;20.09;81.47;101764.75;5035525;28;20032;-79
2023/10/09 11:59:58;;;;;;;16.83;11.15;;;;;;;19.94;82.16;101767.97;5035219;28;20029;-78
2023/10/09 12:02:24;;;;;;;18.55;10.70;;;;;;;20.03;82.07;101763.81;5034285;28;20075;-78
2023/10/09 12:04:49;;;;;;;16.52;11.02;;;;;;;20.06;81.91;101771.53;5032922;28;20045;-78
2023/10/09 12:07:15;;;;;;;17.95;10.70;;;;;;;20.10;82.07;101772.72;5032390;28;20504;-78
2023/10/09 12:09:40;;;;;;;17.20;10.80;;;;;;;20.00;82.72;101777.94;5031318;28;20036;-78
2023/10/09 12:12:07;;;;;;;19.75;10.38;;;;;;;20.02;83.23;101775.81;5032348;28;20059;-78
2023/10/09 12:14:33;;;;;;;17.40;10.95;;;;;;;19.73;83.54;101769.34;5031717;28;20033;-78
2023/10/09 12:17:08;;;;;;;14.85;9.90;;;;;;;19.73;83.82;101764.72;5031584;28;20125;-78
2023/10/09 12:22:00;;;;;;;15.00;10.05;;;;;;;19.72;83.56;101757.59;5291135;23;20481;-77
2023/10/09 12:24:26;;;;;;;15.73;9.73;;;;;;;19.72;84.32;101754.88;5011314;28;20034;-78
2023/10/09 12:26:53;;;;;;;17.40;10.32;;;;;;;19.60;84.43;101751.25;5012631;28;20548;-78
2023/10/09 12:29:19;;;;;;;17.15;9.73;;;;;;;19.59;84.39;101753.19;5012539;28;20484;-77
2023/10/09 12:31:45;;;;;;;15.68;9.70;;;;;;;19.49;85.63;101755.66;5016605;28;20059;-78
2023/10/09 12:34:15;;;;;;;14.02;9.23;;;;;;;19.62;85.06;101751.88;5013968;28;20079;-78
2023/10/09 12:36:43;;;;;;;16.73;9.07;;;;;;;19.61;84.35;101752.94;5014989;28;20030;-78
2023/10/09 12:39:17;;;;;;;17.20;9.00;;;;;;;19.69;83.98;101758.06;5014870;28;20034;-78
2023/10/09 12:41:43;;;;;;;19.13;9.93;;;;;;;19.73;83.99;101734.66;5015510;28;20022;-78
2023/10/09 12:44:14;;;;;;;16.88;9.25;;;;;;;19.76;84.09;101731.47;5015973;28;20044;-78
2023/10/09 12:46:51;;;;;;;13.15;8.93;;;;;;;19.50;84.65;101739.03;5015720;28;20026;-78
2023/10/09 12:49:18;;;;;;;18.33;8.45;;;;;;;19.61;84.75;101739.28;5015423;28;20038;-78
2023/10/09 12:51:44;;;;;;;17.73;9.18;;;;;;;19.85;83.00;101731.94;5015587;28;20026;-78
2023/10/09 12:54:09;;;;;;;15.75;8.80;;;;;;;19.77;83.63;101733.09;5012438;28;20030;-78
2023/10/09 12:56:37;;;;;;;19.63;8.90;;;;;;;19.72;83.67;101730.28;5014744;28;20033;-78
2023/10/09 12:59:04;;;;;;;14.32;8.82;;;;;;;19.56;84.63;101729.06;5015969;28;20025;-77
2023/10/09 13:01:31;;;;;;;13.23;8.02;;;;;;;19.48;85.63;101730.25;5016207;28;20477;-77
2023/10/09 13:03:59;;;;;;;14.85;8.38;;;;;;;19.47;85.87;101728.59;5016800;28;20030;-77
2023/10/09 13:06:28;;;;;;;15.82;8.45;;;;;;;19.29;86.76;101732.25;5021151;28;20037;-78
2023/10/09 13:08:59;;;;;;;15.68;7.70;;;;;;;19.27;87.31;101733.53;5030854;28;20006;-78
2023/10/09 13:11:28;;;;;;;13.50;8.23;;;;;;;19.17;87.76;101734.94;5028263;28;20045;-78
2023/10/09 13:13:53;;;;;;;17.67;9.00;;;;;;;19.15;88.72;101739.78;5016585;28;20029;-78
2023/10/09 13:16:24;;;;;;;16.67;8.77;;;;;;;19.14;87.89;101740.84;5014351;28;20038;-78
2023/10/09 13:18:52;;;;;;;16.48;8.30;;;;;;;19.06;88.48;101738.47;5016953;28;20379;-78
2023/10/09 13:21:40;;;;;;;17.50;8.52;;;;;;;18.91;89.43;101736.94;5015874;28;20049;-78
2023/10/09 13:24:12;;;;;;;12.05;7.88;;;;;;;19.03;89.37;101738.94;5013781;28;20034;-78
2023/10/09 13:26:38;;;;;;;14.80;8.27;;;;;;;19.00;89.60;101736.66;5014352;28;20584;-78
2023/10/09 13:29:03;;;;;;;12.52;7.82;;;;;;;18.96;90.19;101746.38;5014670;28;20026;-78
2023/10/09 13:31:31;;;;;;;15.00;7.95;;;;;;;18.87;91.06;101740.38;5014029;28;20018;-78
2023/10/09 13:33:58;;;;;;;13.13;8.55;;;;;;;18.79;91.57;101749.72;5014524;28;20479;-79
2023/10/09 13:36:30;;;;;;;14.95;8.18;;;;;;;18.72;92.18;101751.69;5014270;28;20486;-78
2023/10/09 13:39:25;;;;;;;;;;;;;;;18.68;92.67;101753.22;5014199;28;20021;-78
2023/10/09 13:42:06;;;;;;;12.73;7.75;;;;;;;18.67;92.85;101743.38;5014053;28;20388;-78
2023/10/09 13:44:33;;;;;;;11.75;7.32;;;;;;;18.66;92.92;101755.34;5007570;28;20118;-78
2023/10/09 13:47:04;;;;;;;12.52;7.35;;;;;;;18.69;92.80;101760.34;4995276;28;20453;-78
2023/10/09 13:49:33;;;;;;;10.35;6.68;;;;;;;18.68;92.97;101758.69;5015659;28;20068;-78
2023/10/09 13:51:59;;;;;;;12.77;6.47;;;;;;;18.67;91.68;101762.47;5013475;28;20045;-78
2023/10/09 13:54:39;;;;;;;12.93;6.43;;;;;;;18.67;92.13;101751.56;5014731;28;20088;-78
2023/10/09 13:57:05;;;;;;;12.07;6.43;;;;;;;18.62;92.44;101763.97;5015672;28;20026;-78
2023/10/09 13:59:30;;;;;;;12.23;6.47;;;;;;;18.55;92.93;101763.22;5012147;28;20087;-78
2023/10/09 14:01:56;;;;;;;11.43;5.97;;;;;;;18.59;92.89;101766.34;5014047;28;20029;-77
2023/10/09 14:04:26;;;;;;;13.57;5.72;;;;;;;18.52;93.43;101755.53;4996997;28;20045;-78
2023/10/09 14:06:57;;;;;;;9.13;5.88;;;;;;;18.48;93.37;101768.75;4995227;28;20030;-78
2023/10/09 14:09:37;;;;;;;11.68;5.60;;;;;;;18.51;93.49;101766.63;5013856;28;20033;-78
2023/10/09 14:12:06;;;;;;;22.08;7.03;;;;;;;18.42;94.08;101766.09;5014258;28;20108;-78
2023/10/09 14:14:38;;;;;;;11.70;6.40;;;;;;;18.41;95.09;101758.97;5011478;28;20091;-78
2023/10/09 14:17:13;;;;;;;10.55;5.78;;;;;;;18.47;95.09;101755.38;5013215;28;20069;-78
2023/10/09 14:19:49;;;;;;;13.38;6.15;;;;;;;18.59;94.92;101749.97;5014966;28;20029;-78
2023/10/09 14:22:16;;;;;;;13.18;6.15;;;;;;;18.72;93.49;101757.97;5012993;28;20493;-78
2023/10/09 14:24:44;;;;;;;13.63;6.07;;;;;;;18.76;93.87;101752.91;5014135;28;20077;-78
2023/10/09 14:27:25;;;;;;;12.07;6.03;;;;;;;18.83;93.08;101750.06;5012245;28;20046;-78
2023/10/09 14:29:51;;;;;;;13.43;6.68;;;;;;;18.79;93.41;101753.28;5012102;28;20041;-79
2023/10/09 14:32:16;;;;;;;11.43;5.93;;;;;;;18.80;93.42;101751.38;5013058;28;20024;-78
2023/10/09 14:34:51;;;;;;;10.00;6.30;;;;;;;18.77;93.47;101743.66;5013357;28;20413;-78
2023/10/09 14:37:20;;;;;;;10.82;5.82;;;;;;;18.78;92.97;101750.78;5013040;28;20470;-78
2023/10/09 14:39:49;;;;;;;9.65;5.55;;;;;;;18.79;93.18;101745.09;5013365;28;20032;-78
2023/10/09 14:42:15;;;;;;;15.65;6.68;;;;;;;18.83;92.18;101734.56;5012322;28;20030;-78
2023/10/09 14:44:40;;;;;;;10.77;5.95;;;;;;;18.98;92.19;101733.34;5013734;28;20430;-78
2023/10/09 14:47:06;;;;;;;9.30;5.90;;;;;;;19.08;91.58;101739.91;5013155;28;20026;-78
2023/10/09 14:49:37;;;;;;;10.40;6.20;;;;;;;19.13;91.30;101739.19;5013457;28;20026;-78
2023/10/09 14:52:08;;;;;;;9.95;6.38;;;;;;;19.11;91.22;101744.06;5013011;28;20030;-78
2023/10/09 14:54:33;;;;;;;9.93;5.68;;;;;;;19.18;91.05;101736.59;5013342;28;20038;-77
2023/10/09 14:56:59;;;;;;;11.13;6.65;;;;;;;19.17;90.48;101739.56;5012297;28;20048;-78
2023/10/09 14:59:25;;;;;;;11.75;6.85;;;;;;;19.13;91.26;101736.47;5012467;28;20037;-78
2023/10/09 15:01:53;;;;;;;11.00;6.18;;;;;;;19.28;89.88;101729.72;5012485;28;20022;-78